37.9°F
Current conditions from King Hill
Updated every 5 minutes
 
  Friday October 31, 2014

Station Historical Data
Daily Summary for May 20, 2012 Units:  Both    English   Metric
« Previous Day
Next Day »
Daily Weekly Monthly Yearly Custom
  High: Low: Average:
Temperature: 86.4 °F /  30.2 °C 51.8 °F /  11 °C 69.2 °F /  20.7 °C
Dew Point: 61.9 °F /  16.6 °C 46.6 °F /  8.1 °C 53.3 °F /  11.8 °C
Humidity: 84% 34% 60%
Wind Speed: 4.0mph /  6.4km/h - 1.7mph /  2.7km/h
Wind Gust: 12.0mph /  19.3km/h - -
Wind- - SW
Pressure: 30.20 in /  1022.6 hPa 30.11 in /  1019.5 hPa -
Precipitation: 0.00 in /  0 mm    
Historical Graphs
 
 
Tabular Data for May 20, 2012
Time Temperature Dew Point Pressure Wind Wind Speed Wind Gust Humidity Daily Rainfall
00:04 55.9 °F /  13.3 °C 48.5 °F /  9.2 °C 30.13in /  1020.2hPa Calm     76% 0.00in /  0mm
00:09 55.8 °F /  13.2 °C 48.7 °F /  9.3 °C 30.13in /  1020.2hPa Calm     77% 0.00in /  0mm
00:14 55.7 °F /  13.2 °C 48.6 °F /  9.2 °C 30.13in /  1020.2hPa Calm     77% 0.00in /  0mm
00:19 55.5 °F /  13.1 °C 47.7 °F /  8.7 °C 30.13in /  1020.2hPa Calm     75% 0.00in /  0mm
00:25 55.6 °F /  13.1 °C 47.8 °F /  8.8 °C 30.13in /  1020.2hPa Calm     75% 0.00in /  0mm
00:29 55.6 °F /  13.1 °C 47.8 °F /  8.8 °C 30.13in /  1020.2hPa Calm     75% 0.00in /  0mm
00:34 55.5 °F /  13.1 °C 47.7 °F /  8.7 °C 30.12in /  1019.9hPa Calm     75% 0.00in /  0mm
00:39 55.4 °F /  13 °C 47.6 °F /  8.7 °C 30.12in /  1019.9hPa Calm     75% 0.00in /  0mm
00:45 55.6 °F /  13.1 °C 47.5 °F /  8.6 °C 30.12in /  1019.9hPa Calm     74% 0.00in /  0mm
00:54 55.3 °F /  12.9 °C 47.5 °F /  8.6 °C 30.13in /  1020.2hPa Calm     75% 0.00in /  0mm
00:59 55.1 °F /  12.8 °C 47.3 °F /  8.5 °C 30.13in /  1020.2hPa Calm     75% 0.00in /  0mm
01:04 54.9 °F /  12.7 °C 47.5 °F /  8.6 °C 30.12in /  1019.9hPa Calm     76% 0.00in /  0mm
01:09 54.7 °F /  12.6 °C 47.6 °F /  8.7 °C 30.12in /  1019.9hPa Calm     77% 0.00in /  0mm
01:14 54.5 °F /  12.5 °C 47.1 °F /  8.4 °C 30.12in /  1019.9hPa Calm     76% 0.00in /  0mm
01:19 54.4 °F /  12.4 °C 47.0 °F /  8.3 °C 30.13in /  1020.2hPa Calm     76% 0.00in /  0mm
01:25 54.4 °F /  12.4 °C 47.3 °F /  8.5 °C 30.12in /  1019.9hPa Calm     77% 0.00in /  0mm
01:30 54.3 °F /  12.4 °C 47.3 °F /  8.5 °C 30.13in /  1020.2hPa Calm     77% 0.00in /  0mm
01:34 54.1 °F /  12.3 °C 47.4 °F /  8.6 °C 30.13in /  1020.2hPa Calm     78% 0.00in /  0mm
01:39 54.0 °F /  12.2 °C 47.0 °F /  8.3 °C 30.12in /  1019.9hPa Calm     77% 0.00in /  0mm
01:44 53.9 °F /  12.2 °C 47.2 °F /  8.4 °C 30.12in /  1019.9hPa Calm     78% 0.00in /  0mm
01:49 53.7 °F /  12.1 °C 47.0 °F /  8.3 °C 30.12in /  1019.9hPa Calm     78% 0.00in /  0mm
01:54 53.8 °F /  12.1 °C 47.1 °F /  8.4 °C 30.12in /  1019.9hPa Calm     78% 0.00in /  0mm
01:59 53.8 °F /  12.1 °C 47.1 °F /  8.4 °C 30.12in /  1019.9hPa Calm     78% 0.00in /  0mm
02:04 53.7 °F /  12.1 °C 47.0 °F /  8.3 °C 30.13in /  1020.2hPa Calm     78% 0.00in /  0mm
02:09 53.7 °F /  12.1 °C 47.0 °F /  8.3 °C 30.12in /  1019.9hPa Calm     78% 0.00in /  0mm
02:14 53.6 °F /  12 °C 46.9 °F /  8.3 °C 30.12in /  1019.9hPa Calm     78% 0.00in /  0mm
02:20 53.5 °F /  11.9 °C 46.8 °F /  8.2 °C 30.13in /  1020.2hPa Calm     78% 0.00in /  0mm
02:24 53.5 °F /  11.9 °C 46.8 °F /  8.2 °C 30.13in /  1020.2hPa Calm     78% 0.00in /  0mm
02:30 53.6 °F /  12 °C 47.3 °F /  8.5 °C 30.13in /  1020.2hPa Calm     79% 0.00in /  0mm
02:35 53.7 °F /  12.1 °C 47.3 °F /  8.5 °C 30.13in /  1020.2hPa Calm     79% 0.00in /  0mm
02:39 53.6 °F /  12 °C 47.3 °F /  8.5 °C 30.13in /  1020.2hPa Calm     79% 0.00in /  0mm
02:45 53.4 °F /  11.9 °C 47.1 °F /  8.4 °C 30.13in /  1020.2hPa Calm     79% 0.00in /  0mm
02:54 53.1 °F /  11.7 °C 47.1 °F /  8.4 °C 30.13in /  1020.2hPa Calm     80% 0.00in /  0mm
02:59 53.0 °F /  11.7 °C 47.0 °F /  8.3 °C 30.13in /  1020.2hPa Calm     80% 0.00in /  0mm
03:04 52.8 °F /  11.6 °C 46.8 °F /  8.2 °C 30.13in /  1020.2hPa Calm     80% 0.00in /  0mm
03:09 52.6 °F /  11.4 °C 46.6 °F /  8.1 °C 30.13in /  1020.2hPa Calm     80% 0.00in /  0mm
03:15 52.6 °F /  11.4 °C 46.6 °F /  8.1 °C 30.13in /  1020.2hPa Calm     80% 0.00in /  0mm
03:20 52.6 °F /  11.4 °C 46.9 °F /  8.3 °C 30.13in /  1020.2hPa Calm     81% 0.00in /  0mm
03:29 52.6 °F /  11.4 °C 47.3 °F /  8.5 °C 30.13in /  1020.2hPa Calm     82% 0.00in /  0mm
03:34 52.7 °F /  11.5 °C 47.4 °F /  8.6 °C 30.14in /  1020.5hPa Calm     82% 0.00in /  0mm
03:39 52.7 °F /  11.5 °C 47.7 °F /  8.7 °C 30.14in /  1020.5hPa Calm     83% 0.00in /  0mm
03:44 52.7 °F /  11.5 °C 47.4 °F /  8.6 °C 30.14in /  1020.5hPa Calm     82% 0.00in /  0mm
03:50 52.4 °F /  11.3 °C 47.1 °F /  8.4 °C 30.14in /  1020.5hPa Calm     82% 0.00in /  0mm
03:54 52.4 °F /  11.3 °C 47.1 °F /  8.4 °C 30.14in /  1020.5hPa Calm     82% 0.00in /  0mm
03:59 52.2 °F /  11.2 °C 47.2 °F /  8.4 °C 30.14in /  1020.5hPa Calm     83% 0.00in /  0mm
04:04 52.4 °F /  11.3 °C 47.4 °F /  8.6 °C 30.14in /  1020.5hPa Calm     83% 0.00in /  0mm
04:09 52.8 °F /  11.6 °C 47.5 °F /  8.6 °C 30.14in /  1020.5hPa Calm     82% 0.00in /  0mm
04:14 52.7 °F /  11.5 °C 47.4 °F /  8.6 °C 30.15in /  1020.9hPa Calm     82% 0.00in /  0mm
04:19 52.8 °F /  11.6 °C 47.5 °F /  8.6 °C 30.14in /  1020.5hPa Calm     82% 0.00in /  0mm
04:25 52.6 °F /  11.4 °C 47.3 °F /  8.5 °C 30.15in /  1020.9hPa Calm     82% 0.00in /  0mm
04:29 52.6 °F /  11.4 °C 47.3 °F /  8.5 °C 30.15in /  1020.9hPa Calm     82% 0.00in /  0mm
04:34 52.5 °F /  11.4 °C 47.2 °F /  8.4 °C 30.15in /  1020.9hPa Calm     82% 0.00in /  0mm
04:39 52.4 °F /  11.3 °C 47.1 °F /  8.4 °C 30.15in /  1020.9hPa Calm     82% 0.00in /  0mm
04:44 52.2 °F /  11.2 °C 47.2 °F /  8.4 °C 30.15in /  1020.9hPa Calm     83% 0.00in /  0mm
04:49 52.2 °F /  11.2 °C 47.2 °F /  8.4 °C 30.15in /  1020.9hPa Calm     83% 0.00in /  0mm
04:54 52.7 °F /  11.5 °C 47.7 °F /  8.7 °C 30.15in /  1020.9hPa Calm     83% 0.00in /  0mm
04:59 53.0 °F /  11.7 °C 47.7 °F /  8.7 °C 30.15in /  1020.9hPa Calm     82% 0.00in /  0mm
05:04 52.7 °F /  11.5 °C 47.0 °F /  8.3 °C 30.15in /  1020.9hPa Calm     81% 0.00in /  0mm
05:09 53.0 °F /  11.7 °C 47.7 °F /  8.7 °C 30.15in /  1020.9hPa Calm     82% 0.00in /  0mm
05:14 53.0 °F /  11.7 °C 47.3 °F /  8.5 °C 30.15in /  1020.9hPa Calm     81% 0.00in /  0mm
05:19 52.7 °F /  11.5 °C 47.0 °F /  8.3 °C 30.15in /  1020.9hPa Calm     81% 0.00in /  0mm
05:24 52.2 °F /  11.2 °C 46.9 °F /  8.3 °C 30.15in /  1020.9hPa Calm     82% 0.00in /  0mm
05:29 51.9 °F /  11.1 °C 46.9 °F /  8.3 °C 30.16in /  1021.2hPa Calm     83% 0.00in /  0mm
05:35 51.8 °F /  11 °C 46.8 °F /  8.2 °C 30.16in /  1021.2hPa Calm     83% 0.00in /  0mm
05:39 51.8 °F /  11 °C 46.8 °F /  8.2 °C 30.16in /  1021.2hPa Calm     83% 0.00in /  0mm
05:45 51.8 °F /  11 °C 47.1 °F /  8.4 °C 30.16in /  1021.2hPa Calm     84% 0.00in /  0mm
05:54 52.3 °F /  11.3 °C 47.6 °F /  8.7 °C 30.16in /  1021.2hPa Calm     84% 0.00in /  0mm
05:59 52.2 °F /  11.2 °C 47.5 °F /  8.6 °C 30.16in /  1021.2hPa Calm     84% 0.00in /  0mm
06:04 52.1 °F /  11.2 °C 47.4 °F /  8.6 °C 30.16in /  1021.2hPa Calm     84% 0.00in /  0mm
06:09 52.2 °F /  11.2 °C 47.5 °F /  8.6 °C 30.16in /  1021.2hPa Calm     84% 0.00in /  0mm
06:14 52.3 °F /  11.3 °C 47.6 °F /  8.7 °C 30.16in /  1021.2hPa Calm     84% 0.00in /  0mm
06:19 52.5 °F /  11.4 °C 47.8 °F /  8.8 °C 30.16in /  1021.2hPa Calm     84% 0.00in /  0mm
06:24 52.7 °F /  11.5 °C 48.0 °F /  8.9 °C 30.16in /  1021.2hPa Calm     84% 0.00in /  0mm
06:29 53.0 °F /  11.7 °C 48.3 °F /  9.1 °C 30.17in /  1021.6hPa Calm     84% 0.00in /  0mm
06:34 53.1 °F /  11.7 °C 48.4 °F /  9.1 °C 30.17in /  1021.6hPa Calm     84% 0.00in /  0mm
06:39 53.5 °F /  11.9 °C 48.8 °F /  9.3 °C 30.17in /  1021.6hPa Calm     84% 0.00in /  0mm
06:44 53.9 °F /  12.2 °C 49.2 °F /  9.6 °C 30.17in /  1021.6hPa Calm     84% 0.00in /  0mm
06:49 54.1 °F /  12.3 °C 49.1 °F /  9.5 °C 30.17in /  1021.6hPa Calm     83% 0.00in /  0mm
06:54 54.7 °F /  12.6 °C 49.3 °F /  9.6 °C 30.17in /  1021.6hPa Calm     82% 0.00in /  0mm
06:59 55.4 °F /  13 °C 50.0 °F /  10 °C 30.17in /  1021.6hPa Calm     82% 0.00in /  0mm
07:04 55.9 °F /  13.3 °C 50.5 °F /  10.3 °C 30.17in /  1021.6hPa Calm     82% 0.00in /  0mm
07:09 56.5 °F /  13.6 °C 51.1 °F /  10.6 °C 30.18in /  1021.9hPa Calm     82% 0.00in /  0mm
07:14 57.2 °F /  14 °C 51.4 °F /  10.8 °C 30.18in /  1021.9hPa Calm     81% 0.00in /  0mm
07:19 58.0 °F /  14.4 °C 52.2 °F /  11.2 °C 30.18in /  1021.9hPa Calm     81% 0.00in /  0mm
07:24 58.6 °F /  14.8 °C 52.1 °F /  11.2 °C 30.18in /  1021.9hPa Calm     79% 0.00in /  0mm
07:29 59.4 °F /  15.2 °C 52.9 °F /  11.6 °C 30.18in /  1021.9hPa Calm     79% 0.00in /  0mm
07:34 60.3 °F /  15.7 °C 53.4 °F /  11.9 °C 30.18in /  1021.9hPa Calm     78% 0.00in /  0mm
07:39 60.7 °F /  15.9 °C 52.7 °F /  11.5 °C 30.18in /  1021.9hPa Calm     75% 0.00in /  0mm
07:44 61.3 °F /  16.3 °C 53.3 °F /  11.8 °C 30.18in /  1021.9hPa Calm     75% 0.00in /  0mm
07:49 62.1 °F /  16.7 °C 54.8 °F /  12.7 °C 30.18in /  1021.9hPa Calm     77% 0.00in /  0mm
07:54 63.0 °F /  17.2 °C 53.8 °F /  12.1 °C 30.18in /  1021.9hPa Calm     72% 0.00in /  0mm
07:59 63.9 °F /  17.7 °C 55.1 °F /  12.8 °C 30.18in /  1021.9hPa Calm     73% 0.00in /  0mm
08:04 65.1 °F /  18.4 °C 56.2 °F /  13.4 °C 30.19in /  1022.2hPa Calm     73% 0.00in /  0mm
08:09 66.3 °F /  19.1 °C 57.8 °F /  14.3 °C 30.19in /  1022.2hPa Calm     74% 0.00in /  0mm
08:14 67.1 °F /  19.5 °C 56.6 °F /  13.7 °C 30.19in /  1022.2hPa Calm     69% 0.00in /  0mm
08:19 67.4 °F /  19.7 °C 56.9 °F /  13.8 °C 30.19in /  1022.2hPa Calm     69% 0.00in /  0mm
08:24 67.8 °F /  19.9 °C 57.7 °F /  14.3 °C 30.19in /  1022.2hPa Calm     70% 0.00in /  0mm
08:29 68.0 °F /  20 °C 57.1 °F /  13.9 °C 30.19in /  1022.2hPa Calm     68% 0.00in /  0mm
08:34 68.4 °F /  20.2 °C 57.8 °F /  14.3 °C 30.19in /  1022.2hPa Calm     69% 0.00in /  0mm
08:39 68.9 °F /  20.5 °C 57.5 °F /  14.2 °C 30.19in /  1022.2hPa Calm     67% 0.00in /  0mm
08:44 69.4 °F /  20.8 °C 57.6 °F /  14.2 °C 30.19in /  1022.2hPa Calm     66% 0.00in /  0mm
08:49 70.0 °F /  21.1 °C 57.3 °F /  14.1 °C 30.19in /  1022.2hPa Calm     64% 0.00in /  0mm
08:54 70.7 °F /  21.5 °C 59.2 °F /  15.1 °C 30.19in /  1022.2hPa Calm     67% 0.00in /  0mm
08:59 71.7 °F /  22.1 °C 60.2 °F /  15.7 °C 30.19in /  1022.2hPa Calm     67% 0.00in /  0mm
09:04 72.9 °F /  22.7 °C 60.9 °F /  16.1 °C 30.19in /  1022.2hPa Calm     66% 0.00in /  0mm
09:09 73.5 °F /  23.1 °C 60.1 °F /  15.6 °C 30.19in /  1022.2hPa Calm     63% 0.00in /  0mm
09:14 73.8 °F /  23.2 °C 57.1 °F /  13.9 °C 30.19in /  1022.2hPa SW 3.0mph /  4.8km/h 5.0mph /  8km/h 56% 0.00in /  0mm
09:19 73.5 °F /  23.1 °C 57.8 °F /  14.3 °C 30.20in /  1022.6hPa Calm   5.0mph /  8km/h 58% 0.00in /  0mm
09:24 73.6 °F /  23.1 °C 56.5 °F /  13.6 °C 30.20in /  1022.6hPa Calm   4.0mph /  6.4km/h 55% 0.00in /  0mm
09:29 73.5 °F /  23.1 °C 55.3 °F /  12.9 °C 30.20in /  1022.6hPa Calm   3.0mph /  4.8km/h 53% 0.00in /  0mm
09:34 73.8 °F /  23.2 °C 56.1 °F /  13.4 °C 30.20in /  1022.6hPa Calm   1.0mph /  1.6km/h 54% 0.00in /  0mm
09:39 74.2 °F /  23.4 °C 54.9 °F /  12.7 °C 30.20in /  1022.6hPa Calm   1.0mph /  1.6km/h 51% 0.00in /  0mm
09:44 74.7 °F /  23.7 °C 53.7 °F /  12.1 °C 30.20in /  1022.6hPa WSW 1.0mph /  1.6km/h 5.0mph /  8km/h 48% 0.00in /  0mm
09:50 75.0 °F /  23.9 °C 56.2 °F /  13.4 °C 30.20in /  1022.6hPa Calm   5.0mph /  8km/h 52% 0.00in /  0mm
09:59 75.2 °F /  24 °C 53.6 °F /  12 °C 30.20in /  1022.6hPa Calm   1.0mph /  1.6km/h 47% 0.00in /  0mm
10:04 75.9 °F /  24.4 °C 54.3 °F /  12.4 °C 30.20in /  1022.6hPa Calm   1.0mph /  1.6km/h 47% 0.00in /  0mm
10:09 76.4 °F /  24.7 °C 55.9 °F /  13.3 °C 30.20in /  1022.6hPa SSW 3.0mph /  4.8km/h 6.0mph /  9.7km/h 49% 0.00in /  0mm
10:14 76.5 °F /  24.7 °C 55.9 °F /  13.3 °C 30.20in /  1022.6hPa SW 3.0mph /  4.8km/h 6.0mph /  9.7km/h 49% 0.00in /  0mm
10:19 76.7 °F /  24.8 °C 57.2 °F /  14 °C 30.20in /  1022.6hPa Calm   6.0mph /  9.7km/h 51% 0.00in /  0mm
10:24 76.8 °F /  24.9 °C 53.9 °F /  12.2 °C 30.20in /  1022.6hPa SW 2.0mph /  3.2km/h 6.0mph /  9.7km/h 45% 0.00in /  0mm
10:29 77.3 °F /  25.2 °C 56.1 °F /  13.4 °C 30.20in /  1022.6hPa Calm   6.0mph /  9.7km/h 48% 0.00in /  0mm
10:34 78.0 °F /  25.6 °C 55.6 °F /  13.1 °C 30.20in /  1022.6hPa Calm   1.0mph /  1.6km/h 46% 0.00in /  0mm
10:40 78.1 °F /  25.6 °C 55.1 °F /  12.8 °C 30.20in /  1022.6hPa Calm   5.0mph /  8km/h 45% 0.00in /  0mm
10:49 78.9 °F /  26.1 °C 55.2 °F /  12.9 °C 30.20in /  1022.6hPa Calm   1.0mph /  1.6km/h 44% 0.00in /  0mm
10:54 79.0 °F /  26.1 °C 55.3 °F /  12.9 °C 30.20in /  1022.6hPa SW 2.0mph /  3.2km/h 7.0mph /  11.3km/h 44% 0.00in /  0mm
10:59 78.8 °F /  26 °C 52.5 °F /  11.4 °C 30.20in /  1022.6hPa SW 1.0mph /  1.6km/h 7.0mph /  11.3km/h 40% 0.00in /  0mm
11:04 78.9 °F /  26.1 °C 53.9 °F /  12.2 °C 30.20in /  1022.6hPa SSW 1.0mph /  1.6km/h 6.0mph /  9.7km/h 42% 0.00in /  0mm
11:09 79.3 °F /  26.3 °C 55.5 °F /  13.1 °C 30.20in /  1022.6hPa Calm   6.0mph /  9.7km/h 44% 0.00in /  0mm
11:14 79.9 °F /  26.6 °C 54.8 °F /  12.7 °C 30.20in /  1022.6hPa SW 1.0mph /  1.6km/h 5.0mph /  8km/h 42% 0.00in /  0mm
11:19 80.2 °F /  26.8 °C 54.4 °F /  12.4 °C 30.20in /  1022.6hPa SW 2.0mph /  3.2km/h 9.0mph /  14.5km/h 41% 0.00in /  0mm
11:25 80.2 °F /  26.8 °C 52.3 °F /  11.3 °C 30.19in /  1022.2hPa Calm   9.0mph /  14.5km/h 38% 0.00in /  0mm
11:29 80.2 °F /  26.8 °C 53.7 °F /  12.1 °C 30.20in /  1022.6hPa SW 1.0mph /  1.6km/h 8.0mph /  12.9km/h 40% 0.00in /  0mm
11:34 80.6 °F /  27 °C 54.1 °F /  12.3 °C 30.19in /  1022.2hPa WSW 1.0mph /  1.6km/h 8.0mph /  12.9km/h 40% 0.00in /  0mm
11:39 80.8 °F /  27.1 °C 54.9 °F /  12.7 °C 30.20in /  1022.6hPa WSW 1.0mph /  1.6km/h 8.0mph /  12.9km/h 41% 0.00in /  0mm
11:44 81.1 °F /  27.3 °C 55.9 °F /  13.3 °C 30.19in /  1022.2hPa SSW 1.0mph /  1.6km/h 7.0mph /  11.3km/h 42% 0.00in /  0mm
11:49 81.4 °F /  27.4 °C 55.5 °F /  13.1 °C 30.19in /  1022.2hPa SSW 1.0mph /  1.6km/h 7.0mph /  11.3km/h 41% 0.00in /  0mm
11:54 81.4 °F /  27.4 °C 54.8 °F /  12.7 °C 30.19in /  1022.2hPa Calm   8.0mph /  12.9km/h 40% 0.00in /  0mm
11:59 81.4 °F /  27.4 °C 52.7 °F /  11.5 °C 30.19in /  1022.2hPa WSW 2.0mph /  3.2km/h 8.0mph /  12.9km/h 37% 0.00in /  0mm
12:04 81.7 °F /  27.6 °C 53.7 °F /  12.1 °C 30.19in /  1022.2hPa SSW 1.0mph /  1.6km/h 8.0mph /  12.9km/h 38% 0.00in /  0mm
12:09 82.1 °F /  27.8 °C 56.1 °F /  13.4 °C 30.19in /  1022.2hPa West 1.0mph /  1.6km/h 7.0mph /  11.3km/h 41% 0.00in /  0mm
12:14 82.1 °F /  27.8 °C 53.3 °F /  11.8 °C 30.19in /  1022.2hPa SSW 3.0mph /  4.8km/h 12.0mph /  19.3km/h 37% 0.00in /  0mm
12:19 82.1 °F /  27.8 °C 52.5 °F /  11.4 °C 30.19in /  1022.2hPa WSW 2.0mph /  3.2km/h 12.0mph /  19.3km/h 36% 0.00in /  0mm
12:25 82.0 °F /  27.8 °C 53.2 °F /  11.8 °C 30.19in /  1022.2hPa WSW 3.0mph /  4.8km/h 9.0mph /  14.5km/h 37% 0.00in /  0mm
12:30 82.4 °F /  28 °C 55.0 °F /  12.8 °C 30.18in /  1021.9hPa Calm   8.0mph /  12.9km/h 39% 0.00in /  0mm
12:39 82.9 °F /  28.3 °C 56.1 °F /  13.4 °C 30.18in /  1021.9hPa Calm   10.0mph /  16.1km/h 40% 0.00in /  0mm
12:44 82.8 °F /  28.2 °C 53.9 °F /  12.2 °C 30.18in /  1021.9hPa SW 2.0mph /  3.2km/h 10.0mph /  16.1km/h 37% 0.00in /  0mm
12:49 82.8 °F /  28.2 °C 54.6 °F /  12.6 °C 30.18in /  1021.9hPa SW 2.0mph /  3.2km/h 9.0mph /  14.5km/h 38% 0.00in /  0mm
12:54 82.8 °F /  28.2 °C 53.2 °F /  11.8 °C 30.18in /  1021.9hPa South 1.0mph /  1.6km/h 9.0mph /  14.5km/h 36% 0.00in /  0mm
12:59 83.0 °F /  28.3 °C 53.3 °F /  11.8 °C 30.18in /  1021.9hPa SW 2.0mph /  3.2km/h 8.0mph /  12.9km/h 36% 0.00in /  0mm
13:04 83.3 °F /  28.5 °C 55.8 °F /  13.2 °C 30.18in /  1021.9hPa Calm   6.0mph /  9.7km/h 39% 0.00in /  0mm
13:09 83.5 °F /  28.6 °C 56.0 °F /  13.3 °C 30.18in /  1021.9hPa SW 3.0mph /  4.8km/h 10.0mph /  16.1km/h 39% 0.00in /  0mm
13:14 83.5 °F /  28.6 °C 53.8 °F /  12.1 °C 30.18in /  1021.9hPa Calm   10.0mph /  16.1km/h 36% 0.00in /  0mm
13:19 83.6 °F /  28.7 °C 56.8 °F /  13.8 °C 30.18in /  1021.9hPa Calm   6.0mph /  9.7km/h 40% 0.00in /  0mm
13:24 83.7 °F /  28.7 °C 56.9 °F /  13.8 °C 30.18in /  1021.9hPa WSW 3.0mph /  4.8km/h 7.0mph /  11.3km/h 40% 0.00in /  0mm
13:29 83.5 °F /  28.6 °C 59.3 °F /  15.2 °C 30.18in /  1021.9hPa West 3.0mph /  4.8km/h 8.0mph /  12.9km/h 44% 0.00in /  0mm
13:34 83.4 °F /  28.6 °C 57.3 °F /  14.1 °C 30.17in /  1021.6hPa West 1.0mph /  1.6km/h 8.0mph /  12.9km/h 41% 0.00in /  0mm
13:39 83.3 °F /  28.5 °C 56.5 °F /  13.6 °C 30.17in /  1021.6hPa SSW 3.0mph /  4.8km/h 8.0mph /  12.9km/h 40% 0.00in /  0mm
13:44 83.4 °F /  28.6 °C 57.3 °F /  14.1 °C 30.17in /  1021.6hPa WSW 3.0mph /  4.8km/h 9.0mph /  14.5km/h 41% 0.00in /  0mm
13:49 83.2 °F /  28.4 °C 55.0 °F /  12.8 °C 30.17in /  1021.6hPa West 2.0mph /  3.2km/h 9.0mph /  14.5km/h 38% 0.00in /  0mm
13:54 83.2 °F /  28.4 °C 55.7 °F /  13.2 °C 30.17in /  1021.6hPa NW 4.0mph /  6.4km/h 9.0mph /  14.5km/h 39% 0.00in /  0mm
13:59 83.1 °F /  28.4 °C 54.9 °F /  12.7 °C 30.17in /  1021.6hPa WSW 4.0mph /  6.4km/h 11.0mph /  17.7km/h 38% 0.00in /  0mm
14:04 83.2 °F /  28.4 °C 57.1 °F /  13.9 °C 30.17in /  1021.6hPa WSW 1.0mph /  1.6km/h 11.0mph /  17.7km/h 41% 0.00in /  0mm
14:09 83.5 °F /  28.6 °C 54.5 °F /  12.5 °C 30.17in /  1021.6hPa Calm   6.0mph /  9.7km/h 37% 0.00in /  0mm
14:14 83.8 °F /  28.8 °C 59.6 °F /  15.3 °C 30.17in /  1021.6hPa Calm   4.0mph /  6.4km/h 44% 0.00in /  0mm
14:19 84.4 °F /  29.1 °C 56.1 °F /  13.4 °C 30.16in /  1021.2hPa WSW 1.0mph /  1.6km/h 4.0mph /  6.4km/h 38% 0.00in /  0mm
14:24 84.7 °F /  29.3 °C 59.1 °F /  15.1 °C 30.16in /  1021.2hPa SSW 1.0mph /  1.6km/h 6.0mph /  9.7km/h 42% 0.00in /  0mm
14:30 84.9 °F /  29.4 °C 55.0 °F /  12.8 °C 30.16in /  1021.2hPa Calm   6.0mph /  9.7km/h 36% 0.00in /  0mm
14:34 84.8 °F /  29.3 °C 56.4 °F /  13.6 °C 30.16in /  1021.2hPa Calm   6.0mph /  9.7km/h 38% 0.00in /  0mm
14:39 85.1 °F /  29.5 °C 57.4 °F /  14.1 °C 30.16in /  1021.2hPa Calm   5.0mph /  8km/h 39% 0.00in /  0mm
14:45 85.1 °F /  29.5 °C 55.2 °F /  12.9 °C 30.16in /  1021.2hPa WSW 3.0mph /  4.8km/h 6.0mph /  9.7km/h 36% 0.00in /  0mm
14:54 84.8 °F /  29.3 °C 54.9 °F /  12.7 °C 30.15in /  1020.9hPa Calm   7.0mph /  11.3km/h 36% 0.00in /  0mm
14:59 84.7 °F /  29.3 °C 56.3 °F /  13.5 °C 30.15in /  1020.9hPa WSW 3.0mph /  4.8km/h 7.0mph /  11.3km/h 38% 0.00in /  0mm
15:05 84.5 °F /  29.2 °C 57.6 °F /  14.2 °C 30.15in /  1020.9hPa WNW 2.0mph /  3.2km/h 8.0mph /  12.9km/h 40% 0.00in /  0mm
15:14 84.7 °F /  29.3 °C 56.3 °F /  13.5 °C 30.15in /  1020.9hPa Calm   6.0mph /  9.7km/h 38% 0.00in /  0mm
15:19 84.8 °F /  29.3 °C 58.5 °F /  14.7 °C 30.15in /  1020.9hPa WNW 1.0mph /  1.6km/h 7.0mph /  11.3km/h 41% 0.00in /  0mm
15:24 84.8 °F /  29.3 °C 57.8 °F /  14.3 °C 30.14in /  1020.5hPa Calm   7.0mph /  11.3km/h 40% 0.00in /  0mm
15:30 85.2 °F /  29.6 °C 56.8 °F /  13.8 °C 30.14in /  1020.5hPa Calm   6.0mph /  9.7km/h 38% 0.00in /  0mm
15:39 85.3 °F /  29.6 °C 53.8 °F /  12.1 °C 30.14in /  1020.5hPa Calm   5.0mph /  8km/h 34% 0.00in /  0mm
15:49 85.9 °F /  29.9 °C 55.9 °F /  13.3 °C 30.13in /  1020.2hPa SSW 2.0mph /  3.2km/h 7.0mph /  11.3km/h 36% 0.00in /  0mm
15:55 86.0 °F /  30 °C 58.2 °F /  14.6 °C 30.13in /  1020.2hPa Calm   6.0mph /  9.7km/h 39% 0.00in /  0mm
16:05 86.4 °F /  30.2 °C 58.6 °F /  14.8 °C 30.13in /  1020.2hPa Calm   7.0mph /  11.3km/h 39% 0.00in /  0mm
16:14 86.3 °F /  30.2 °C 58.5 °F /  14.7 °C 30.13in /  1020.2hPa Calm   5.0mph /  8km/h 39% 0.00in /  0mm
16:19 86.2 °F /  30.1 °C 55.4 °F /  13 °C 30.13in /  1020.2hPa Calm   6.0mph /  9.7km/h 35% 0.00in /  0mm
16:25 86.0 °F /  30 °C 56.7 °F /  13.7 °C 30.13in /  1020.2hPa Calm   6.0mph /  9.7km/h 37% 0.00in /  0mm
16:34 85.5 °F /  29.7 °C 54.8 °F /  12.7 °C 30.13in /  1020.2hPa West 1.0mph /  1.6km/h 6.0mph /  9.7km/h 35% 0.00in /  0mm
16:39 85.4 °F /  29.7 °C 56.2 °F /  13.4 °C 30.13in /  1020.2hPa WNW 2.0mph /  3.2km/h 8.0mph /  12.9km/h 37% 0.00in /  0mm
16:44 85.3 °F /  29.6 °C 56.1 °F /  13.4 °C 30.13in /  1020.2hPa WNW 2.0mph /  3.2km/h 8.0mph /  12.9km/h 37% 0.00in /  0mm
16:50 85.4 °F /  29.7 °C 55.4 °F /  13 °C 30.12in /  1019.9hPa Calm   6.0mph /  9.7km/h 36% 0.00in /  0mm
16:59 84.9 °F /  29.4 °C 55.0 °F /  12.8 °C 30.12in /  1019.9hPa Calm   8.0mph /  12.9km/h 36% 0.00in /  0mm
17:04 84.8 °F /  29.3 °C 55.7 °F /  13.2 °C 30.12in /  1019.9hPa Calm   8.0mph /  12.9km/h 37% 0.00in /  0mm
17:09 84.9 °F /  29.4 °C 55.8 °F /  13.2 °C 30.12in /  1019.9hPa SW 1.0mph /  1.6km/h 8.0mph /  12.9km/h 37% 0.00in /  0mm
17:14 84.8 °F /  29.3 °C 56.4 °F /  13.6 °C 30.12in /  1019.9hPa West 1.0mph /  1.6km/h 6.0mph /  9.7km/h 38% 0.00in /  0mm
17:19 84.8 °F /  29.3 °C 54.9 °F /  12.7 °C 30.12in /  1019.9hPa West 1.0mph /  1.6km/h 6.0mph /  9.7km/h 36% 0.00in /  0mm
17:24 84.8 °F /  29.3 °C 57.1 °F /  13.9 °C 30.12in /  1019.9hPa Calm   6.0mph /  9.7km/h 39% 0.00in /  0mm
17:29 84.9 °F /  29.4 °C 57.9 °F /  14.4 °C 30.11in /  1019.5hPa Calm   4.0mph /  6.4km/h 40% 0.00in /  0mm
17:34 84.7 °F /  29.3 °C 57.7 °F /  14.3 °C 30.12in /  1019.9hPa SW 1.0mph /  1.6km/h 5.0mph /  8km/h 40% 0.00in /  0mm
17:39 84.4 °F /  29.1 °C 57.5 °F /  14.2 °C 30.12in /  1019.9hPa SW 2.0mph /  3.2km/h 7.0mph /  11.3km/h 40% 0.00in /  0mm
17:44 84.1 °F /  28.9 °C 59.9 °F /  15.5 °C 30.12in /  1019.9hPa WSW 1.0mph /  1.6km/h 7.0mph /  11.3km/h 44% 0.00in /  0mm
17:50 83.9 °F /  28.8 °C 57.0 °F /  13.9 °C 30.12in /  1019.9hPa West 3.0mph /  4.8km/h 7.0mph /  11.3km/h 40% 0.00in /  0mm
17:59 83.8 °F /  28.8 °C 56.9 °F /  13.8 °C 30.12in /  1019.9hPa NW 1.0mph /  1.6km/h 7.0mph /  11.3km/h 40% 0.00in /  0mm
18:04 83.6 °F /  28.7 °C 56.1 °F /  13.4 °C 30.12in /  1019.9hPa Calm   5.0mph /  8km/h 39% 0.00in /  0mm
18:09 83.6 °F /  28.7 °C 58.1 °F /  14.5 °C 30.12in /  1019.9hPa Calm   5.0mph /  8km/h 42% 0.00in /  0mm
18:14 83.7 °F /  28.7 °C 58.9 °F /  14.9 °C 30.12in /  1019.9hPa Calm   1.0mph /  1.6km/h 43% 0.00in /  0mm
18:19 83.6 °F /  28.7 °C 58.8 °F /  14.9 °C 30.12in /  1019.9hPa Calm   3.0mph /  4.8km/h 43% 0.00in /  0mm
18:24 83.6 °F /  28.7 °C 58.8 °F /  14.9 °C 30.12in /  1019.9hPa Calm   3.0mph /  4.8km/h 43% 0.00in /  0mm
18:30 83.9 °F /  28.8 °C 57.7 °F /  14.3 °C 30.12in /  1019.9hPa Calm   3.0mph /  4.8km/h 41% 0.00in /  0mm
18:35 83.7 °F /  28.7 °C 56.9 °F /  13.8 °C 30.12in /  1019.9hPa Calm   4.0mph /  6.4km/h 40% 0.00in /  0mm
18:44 83.9 °F /  28.8 °C 60.3 °F /  15.7 °C 30.12in /  1019.9hPa Calm   1.0mph /  1.6km/h 45% 0.00in /  0mm
18:49 83.6 °F /  28.7 °C 56.8 °F /  13.8 °C 30.12in /  1019.9hPa SSW 1.0mph /  1.6km/h 4.0mph /  6.4km/h 40% 0.00in /  0mm
18:54 83.0 °F /  28.3 °C 58.9 °F /  14.9 °C 30.11in /  1019.5hPa Calm   4.0mph /  6.4km/h 44% 0.00in /  0mm
18:59 82.8 °F /  28.2 °C 57.4 °F /  14.1 °C 30.12in /  1019.9hPa Calm   1.0mph /  1.6km/h 42% 0.00in /  0mm
19:04 82.4 °F /  28 °C 57.7 °F /  14.3 °C 30.12in /  1019.9hPa Calm     43% 0.00in /  0mm
19:09 81.8 °F /  27.7 °C 61.9 °F /  16.6 °C 30.12in /  1019.9hPa Calm     51% 0.00in /  0mm
19:14 80.6 °F /  27 °C 60.3 °F /  15.7 °C 30.12in /  1019.9hPa Calm     50% 0.00in /  0mm
19:19 79.4 °F /  26.3 °C 59.2 °F /  15.1 °C 30.12in /  1019.9hPa Calm   1.0mph /  1.6km/h 50% 0.00in /  0mm
19:25 78.5 °F /  25.8 °C 58.9 °F /  14.9 °C 30.12in /  1019.9hPa Calm   1.0mph /  1.6km/h 51% 0.00in /  0mm
19:34 76.6 °F /  24.8 °C 58.7 °F /  14.8 °C 30.12in /  1019.9hPa Calm     54% 0.00in /  0mm
19:39 75.6 °F /  24.2 °C 58.8 °F /  14.9 °C 30.12in /  1019.9hPa Calm     56% 0.00in /  0mm
19:44 74.8 °F /  23.8 °C 58.6 °F /  14.8 °C 30.12in /  1019.9hPa Calm     57% 0.00in /  0mm
19:49 74.0 °F /  23.3 °C 58.3 °F /  14.6 °C 30.12in /  1019.9hPa Calm     58% 0.00in /  0mm
19:54 73.3 °F /  22.9 °C 57.2 °F /  14 °C 30.12in /  1019.9hPa Calm     57% 0.00in /  0mm
19:59 72.8 °F /  22.7 °C 57.2 °F /  14 °C 30.12in /  1019.9hPa Calm     58% 0.00in /  0mm
20:04 72.3 °F /  22.4 °C 57.2 °F /  14 °C 30.12in /  1019.9hPa Calm     59% 0.00in /  0mm
20:09 71.8 °F /  22.1 °C 56.7 °F /  13.7 °C 30.12in /  1019.9hPa Calm     59% 0.00in /  0mm
20:14 71.4 °F /  21.9 °C 56.3 °F /  13.5 °C 30.12in /  1019.9hPa Calm     59% 0.00in /  0mm
20:19 71.0 °F /  21.7 °C 56.4 °F /  13.6 °C 30.12in /  1019.9hPa Calm   1.0mph /  1.6km/h 60% 0.00in /  0mm
20:24 70.8 °F /  21.6 °C 56.2 °F /  13.4 °C 30.13in /  1020.2hPa Calm   1.0mph /  1.6km/h 60% 0.00in /  0mm
20:29 70.5 °F /  21.4 °C 56.9 °F /  13.8 °C 30.13in /  1020.2hPa Calm   1.0mph /  1.6km/h 62% 0.00in /  0mm
20:35 69.8 °F /  21 °C 56.2 °F /  13.4 °C 30.13in /  1020.2hPa Calm     62% 0.00in /  0mm
20:45 68.5 °F /  20.3 °C 56.3 °F /  13.5 °C 30.13in /  1020.2hPa Calm     65% 0.00in /  0mm
20:50 68.1 °F /  20.1 °C 55.9 °F /  13.3 °C 30.13in /  1020.2hPa Calm   1.0mph /  1.6km/h 65% 0.00in /  0mm
20:59 67.3 °F /  19.6 °C 56.4 °F /  13.6 °C 30.13in /  1020.2hPa Calm   1.0mph /  1.6km/h 68% 0.00in /  0mm
21:04 66.7 °F /  19.3 °C 56.6 °F /  13.7 °C 30.13in /  1020.2hPa Calm     70% 0.00in /  0mm
21:09 66.0 °F /  18.9 °C 55.9 °F /  13.3 °C 30.13in /  1020.2hPa Calm     70% 0.00in /  0mm
21:14 65.4 °F /  18.6 °C 55.8 °F /  13.2 °C 30.13in /  1020.2hPa Calm     71% 0.00in /  0mm
21:20 65.2 °F /  18.4 °C 55.6 °F /  13.1 °C 30.14in /  1020.5hPa Calm     71% 0.00in /  0mm
21:25 65.0 °F /  18.3 °C 55.0 °F /  12.8 °C 30.14in /  1020.5hPa Calm   1.0mph /  1.6km/h 70% 0.00in /  0mm
21:34 65.7 °F /  18.7 °C 54.9 °F /  12.7 °C 30.14in /  1020.5hPa Calm   1.0mph /  1.6km/h 68% 0.00in /  0mm
21:39 66.3 °F /  19.1 °C 54.6 °F /  12.6 °C 30.14in /  1020.5hPa Calm   1.0mph /  1.6km/h 66% 0.00in /  0mm
21:44 66.8 °F /  19.3 °C 54.7 °F /  12.6 °C 30.14in /  1020.5hPa Calm   1.0mph /  1.6km/h 65% 0.00in /  0mm
21:49 67.6 °F /  19.8 °C 54.6 °F /  12.6 °C 30.14in /  1020.5hPa SSW 1.0mph /  1.6km/h 5.0mph /  8km/h 63% 0.00in /  0mm
21:54 68.4 °F /  20.2 °C 54.0 °F /  12.2 °C 30.14in /  1020.5hPa SSE 1.0mph /  1.6km/h 5.0mph /  8km/h 60% 0.00in /  0mm
21:59 69.5 °F /  20.8 °C 53.6 °F /  12 °C 30.14in /  1020.5hPa South 1.0mph /  1.6km/h 5.0mph /  8km/h 57% 0.00in /  0mm
22:04 70.4 °F /  21.3 °C 53.5 °F /  11.9 °C 30.14in /  1020.5hPa South 1.0mph /  1.6km/h 6.0mph /  9.7km/h 55% 0.00in /  0mm
22:09 71.2 °F /  21.8 °C 53.7 °F /  12.1 °C 30.14in /  1020.5hPa SSE 1.0mph /  1.6km/h 6.0mph /  9.7km/h 54% 0.00in /  0mm
22:14 71.4 °F /  21.9 °C 54.4 °F /  12.4 °C 30.14in /  1020.5hPa South 1.0mph /  1.6km/h 6.0mph /  9.7km/h 55% 0.00in /  0mm
22:19 70.8 °F /  21.6 °C 54.8 °F /  12.7 °C 30.14in /  1020.5hPa Calm   5.0mph /  8km/h 57% 0.00in /  0mm
22:24 69.9 °F /  21.1 °C 54.9 °F /  12.7 °C 30.14in /  1020.5hPa Calm   1.0mph /  1.6km/h 59% 0.00in /  0mm
22:29 69.2 °F /  20.7 °C 54.3 °F /  12.4 °C 30.14in /  1020.5hPa Calm   1.0mph /  1.6km/h 59% 0.00in /  0mm
22:34 68.4 °F /  20.2 °C 54.4 °F /  12.4 °C 30.14in /  1020.5hPa Calm   1.0mph /  1.6km/h 61% 0.00in /  0mm
22:39 67.5 °F /  19.7 °C 54.0 °F /  12.2 °C 30.14in /  1020.5hPa Calm     62% 0.00in /  0mm
22:44 66.8 °F /  19.3 °C 53.8 °F /  12.1 °C 30.14in /  1020.5hPa Calm     63% 0.00in /  0mm
22:49 66.2 °F /  19 °C 54.1 °F /  12.3 °C 30.14in /  1020.5hPa Calm     65% 0.00in /  0mm
22:54 65.6 °F /  18.7 °C 53.9 °F /  12.2 °C 30.14in /  1020.5hPa Calm     66% 0.00in /  0mm
22:59 64.9 °F /  18.3 °C 53.7 °F /  12.1 °C 30.14in /  1020.5hPa Calm     67% 0.00in /  0mm
23:04 64.2 °F /  17.9 °C 53.8 °F /  12.1 °C 30.14in /  1020.5hPa Calm   1.0mph /  1.6km/h 69% 0.00in /  0mm
23:09 64.0 °F /  17.8 °C 53.2 °F /  11.8 °C 30.14in /  1020.5hPa Calm   9.0mph /  14.5km/h 68% 0.00in /  0mm
23:14 64.5 °F /  18.1 °C 52.9 °F /  11.6 °C 30.14in /  1020.5hPa SW 1.0mph /  1.6km/h 9.0mph /  14.5km/h 66% 0.00in /  0mm
23:19 65.4 °F /  18.6 °C 53.3 °F /  11.8 °C 30.14in /  1020.5hPa Calm   5.0mph /  8km/h 65% 0.00in /  0mm
23:25 66.0 °F /  18.9 °C 53.5 °F /  11.9 °C 30.14in /  1020.5hPa Calm   4.0mph /  6.4km/h 64% 0.00in /  0mm
23:34 66.0 °F /  18.9 °C 53.9 °F /  12.2 °C 30.14in /  1020.5hPa Calm   4.0mph /  6.4km/h 65% 0.00in /  0mm
23:39 65.8 °F /  18.8 °C 53.7 °F /  12.1 °C 30.14in /  1020.5hPa South 1.0mph /  1.6km/h 4.0mph /  6.4km/h 65% 0.00in /  0mm
23:49 65.2 °F /  18.4 °C 53.6 °F /  12 °C 30.14in /  1020.5hPa Calm   2.0mph /  3.2km/h 66% 0.00in /  0mm
23:54 64.8 °F /  18.2 °C 53.6 °F /  12 °C 30.14in /  1020.5hPa Calm   2.0mph /  3.2km/h 67% 0.00in /  0mm
23:59 64.4 °F /  18 °C 53.6 °F /  12 °C 30.14in /  1020.5hPa Calm   1.0mph /  1.6km/h 68% 0.00in /  0mm
Westford Weather
Compliments of Weather Underground

 
 
Current Radar Loop:

Copyright © WestfordWeather.net 2007-2014. All rights reserved.